sensor_id;sensor_type;location;lat;lon;timestamp;P1;durP1;ratioP1;P2;durP2;ratioP2
65238;SDS011;51827;51.186;6.926;2023-04-24T00:00:42;3.80;;;1.20;;
65238;SDS011;51827;51.186;6.926;2023-04-24T00:01:42;2.40;;;1.13;;
65238;SDS011;51827;51.186;6.926;2023-04-24T00:02:43;2.70;;;1.20;;
65238;SDS011;51827;51.186;6.926;2023-04-24T00:03:44;2.28;;;1.27;;
65238;SDS011;51827;51.186;6.926;2023-04-24T00:04:45;4.70;;;1.37;;
65238;SDS011;51827;51.186;6.926;2023-04-24T00:05:45;1.43;;;1.10;;
65238;SDS011;51827;51.186;6.926;2023-04-24T00:06:45;2.17;;;1.20;;
65238;SDS011;51827;51.186;6.926;2023-04-24T00:07:45;3.17;;;1.30;;
65238;SDS011;51827;51.186;6.926;2023-04-24T00:08:45;2.83;;;1.23;;
65238;SDS011;51827;51.186;6.926;2023-04-24T00:09:46;2.80;;;1.40;;
65238;SDS011;51827;51.186;6.926;2023-04-24T00:10:46;1.73;;;1.23;;
65238;SDS011;51827;51.186;6.926;2023-04-24T00:11:46;1.90;;;1.10;;
65238;SDS011;51827;51.186;6.926;2023-04-24T00:12:46;2.10;;;1.20;;
65238;SDS011;51827;51.186;6.926;2023-04-24T00:13:47;1.95;;;1.10;;
65238;SDS011;51827;51.186;6.926;2023-04-24T00:14:48;2.00;;;1.20;;
65238;SDS011;51827;51.186;6.926;2023-04-24T00:15:48;2.17;;;1.20;;
65238;SDS011;51827;51.186;6.926;2023-04-24T00:16:48;1.73;;;1.13;;
65238;SDS011;51827;51.186;6.926;2023-04-24T00:17:48;2.80;;;1.30;;
65238;SDS011;51827;51.186;6.926;2023-04-24T00:18:49;1.90;;;1.20;;
65238;SDS011;51827;51.186;6.926;2023-04-24T00:19:49;1.43;;;1.10;;
65238;SDS011;51827;51.186;6.926;2023-04-24T00:20:49;2.87;;;1.20;;
65238;SDS011;51827;51.186;6.926;2023-04-24T00:21:49;2.00;;;1.20;;
65238;SDS011;51827;51.186;6.926;2023-04-24T00:22:50;3.13;;;1.30;;
65238;SDS011;51827;51.186;6.926;2023-04-24T00:23:50;1.50;;;1.20;;
65238;SDS011;51827;51.186;6.926;2023-04-24T00:24:51;2.33;;;1.10;;
65238;SDS011;51827;51.186;6.926;2023-04-24T00:25:51;1.73;;;1.10;;
65238;SDS011;51827;51.186;6.926;2023-04-24T00:26:51;1.83;;;1.20;;
65238;SDS011;51827;51.186;6.926;2023-04-24T00:27:51;2.30;;;1.40;;
65238;SDS011;51827;51.186;6.926;2023-04-24T00:28:51;2.53;;;1.33;;
65238;SDS011;51827;51.186;6.926;2023-04-24T00:29:52;3.63;;;1.07;;
65238;SDS011;51827;51.186;6.926;2023-04-24T00:30:53;1.63;;;1.10;;
65238;SDS011;51827;51.186;6.926;2023-04-24T00:31:53;2.00;;;1.20;;
65238;SDS011;51827;51.186;6.926;2023-04-24T00:32:54;2.25;;;1.15;;
65238;SDS011;51827;51.186;6.926;2023-04-24T00:33:54;1.90;;;1.10;;
65238;SDS011;51827;51.186;6.926;2023-04-24T00:34:54;1.80;;;1.10;;
65238;SDS011;51827;51.186;6.926;2023-04-24T00:35:54;2.27;;;1.20;;
65238;SDS011;51827;51.186;6.926;2023-04-24T00:36:55;2.53;;;1.17;;
65238;SDS011;51827;51.186;6.926;2023-04-24T00:37:55;1.73;;;1.23;;
65238;SDS011;51827;51.186;6.926;2023-04-24T00:38:55;1.90;;;1.20;;
65238;SDS011;51827;51.186;6.926;2023-04-24T00:39:55;1.50;;;0.90;;
65238;SDS011;51827;51.186;6.926;2023-04-24T00:40:56;2.63;;;1.00;;
65238;SDS011;51827;51.186;6.926;2023-04-24T00:41:56;1.70;;;1.10;;
65238;SDS011;51827;51.186;6.926;2023-04-24T00:42:56;2.30;;;1.20;;
65238;SDS011;51827;51.186;6.926;2023-04-24T00:43:57;2.35;;;1.15;;
65238;SDS011;51827;51.186;6.926;2023-04-24T00:44:57;2.63;;;1.27;;
65238;SDS011;51827;51.186;6.926;2023-04-24T00:45:58;1.73;;;1.10;;
65238;SDS011;51827;51.186;6.926;2023-04-24T00:46:58;2.10;;;1.20;;
65238;SDS011;51827;51.186;6.926;2023-04-24T00:47:59;2.53;;;1.30;;
65238;SDS011;51827;51.186;6.926;2023-04-24T00:49:00;2.30;;;1.65;;
65238;SDS011;51827;51.186;6.926;2023-04-24T00:50:04;1.73;;;1.10;;
65238;SDS011;51827;51.186;6.926;2023-04-24T00:51:05;2.53;;;1.15;;
65238;SDS011;51827;51.186;6.926;2023-04-24T00:52:05;1.37;;;1.00;;
65238;SDS011;51827;51.186;6.926;2023-04-24T00:53:05;1.50;;;1.00;;
65238;SDS011;51827;51.186;6.926;2023-04-24T00:54:06;1.93;;;1.10;;
65238;SDS011;51827;51.186;6.926;2023-04-24T00:55:06;1.67;;;0.90;;
65238;SDS011;51827;51.186;6.926;2023-04-24T00:56:06;2.38;;;1.15;;
65238;SDS011;51827;51.186;6.926;2023-04-24T00:57:07;2.80;;;1.10;;
65238;SDS011;51827;51.186;6.926;2023-04-24T00:58:07;2.80;;;1.03;;
65238;SDS011;51827;51.186;6.926;2023-04-24T00:59:08;1.67;;;1.00;;
65238;SDS011;51827;51.186;6.926;2023-04-24T01:00:08;1.30;;;0.98;;
65238;SDS011;51827;51.186;6.926;2023-04-24T01:01:09;2.50;;;1.30;;
65238;SDS011;51827;51.186;6.926;2023-04-24T01:02:10;1.90;;;1.00;;
65238;SDS011;51827;51.186;6.926;2023-04-24T01:03:11;2.50;;;1.10;;
65238;SDS011;51827;51.186;6.926;2023-04-24T01:05:13;2.07;;;1.00;;
65238;SDS011;51827;51.186;6.926;2023-04-24T01:06:14;1.92;;;1.02;;
65238;SDS011;51827;51.186;6.926;2023-04-24T01:07:15;1.80;;;1.15;;
65238;SDS011;51827;51.186;6.926;2023-04-24T01:08:15;1.90;;;1.13;;
65238;SDS011;51827;51.186;6.926;2023-04-24T01:09:16;2.92;;;1.00;;
65238;SDS011;51827;51.186;6.926;2023-04-24T01:10:17;1.92;;;1.00;;
65238;SDS011;51827;51.186;6.926;2023-04-24T01:11:19;2.67;;;1.08;;
65238;SDS011;51827;51.186;6.926;2023-04-24T01:12:19;3.33;;;1.08;;
65238;SDS011;51827;51.186;6.926;2023-04-24T01:13:19;2.03;;;1.10;;
65238;SDS011;51827;51.186;6.926;2023-04-24T01:14:20;2.10;;;1.10;;
65238;SDS011;51827;51.186;6.926;2023-04-24T01:15:20;2.13;;;1.40;;
65238;SDS011;51827;51.186;6.926;2023-04-24T01:16:20;2.30;;;1.00;;
65238;SDS011;51827;51.186;6.926;2023-04-24T01:17:20;1.77;;;1.13;;
65238;SDS011;51827;51.186;6.926;2023-04-24T01:18:21;2.10;;;1.20;;
65238;SDS011;51827;51.186;6.926;2023-04-24T01:19:21;3.83;;;1.40;;
65238;SDS011;51827;51.186;6.926;2023-04-24T01:20:21;1.93;;;0.83;;
65238;SDS011;51827;51.186;6.926;2023-04-24T01:21:23;0.80;;;0.80;;
65238;SDS011;51827;51.186;6.926;2023-04-24T01:22:26;1.58;;;1.08;;
65238;SDS011;51827;51.186;6.926;2023-04-24T01:23:26;2.28;;;1.13;;
65238;SDS011;51827;51.186;6.926;2023-04-24T01:24:27;2.33;;;1.20;;
65238;SDS011;51827;51.186;6.926;2023-04-24T01:25:28;1.73;;;1.10;;
65238;SDS011;51827;51.186;6.926;2023-04-24T01:26:29;3.35;;;1.20;;
65238;SDS011;51827;51.186;6.926;2023-04-24T01:27:29;2.93;;;1.30;;
65238;SDS011;51827;51.186;6.926;2023-04-24T01:28:30;2.28;;;1.13;;
65238;SDS011;51827;51.186;6.926;2023-04-24T01:29:30;2.97;;;1.38;;
65238;SDS011;51827;51.186;6.926;2023-04-24T01:30:31;2.25;;;1.23;;
65238;SDS011;51827;51.186;6.926;2023-04-24T01:31:31;1.50;;;1.05;;
65238;SDS011;51827;51.186;6.926;2023-04-24T01:32:32;2.33;;;1.25;;
65238;SDS011;51827;51.186;6.926;2023-04-24T01:33:33;2.15;;;1.10;;
65238;SDS011;51827;51.186;6.926;2023-04-24T01:34:33;11.13;;;1.38;;
65238;SDS011;51827;51.186;6.926;2023-04-24T01:35:34;1.58;;;1.08;;
65238;SDS011;51827;51.186;6.926;2023-04-24T01:36:35;2.67;;;1.00;;
65238;SDS011;51827;51.186;6.926;2023-04-24T01:37:35;1.98;;;1.02;;
65238;SDS011;51827;51.186;6.926;2023-04-24T01:38:36;1.95;;;0.90;;
65238;SDS011;51827;51.186;6.926;2023-04-24T01:39:37;1.33;;;1.00;;
65238;SDS011;51827;51.186;6.926;2023-04-24T01:40:37;1.85;;;1.20;;
65238;SDS011;51827;51.186;6.926;2023-04-24T01:41:37;2.40;;;1.00;;
65238;SDS011;51827;51.186;6.926;2023-04-24T01:42:38;2.57;;;1.20;;
65238;SDS011;51827;51.186;6.926;2023-04-24T01:43:41;2.33;;;1.02;;
65238;SDS011;51827;51.186;6.926;2023-04-24T01:44:41;1.43;;;1.00;;
65238;SDS011;51827;51.186;6.926;2023-04-24T01:45:41;1.35;;;0.90;;
65238;SDS011;51827;51.186;6.926;2023-04-24T01:46:42;1.37;;;1.00;;
65238;SDS011;51827;51.186;6.926;2023-04-24T01:47:42;1.65;;;1.00;;
65238;SDS011;51827;51.186;6.926;2023-04-24T01:49:44;1.83;;;1.10;;
65238;SDS011;51827;51.186;6.926;2023-04-24T01:50:45;1.50;;;1.00;;
65238;SDS011;51827;51.186;6.926;2023-04-24T01:51:46;1.27;;;0.90;;
65238;SDS011;51827;51.186;6.926;2023-04-24T01:52:46;1.30;;;0.90;;
65238;SDS011;51827;51.186;6.926;2023-04-24T01:53:46;2.80;;;1.20;;
65238;SDS011;51827;51.186;6.926;2023-04-24T01:54:46;2.73;;;1.20;;
65238;SDS011;51827;51.186;6.926;2023-04-24T01:55:47;1.85;;;1.10;;
65238;SDS011;51827;51.186;6.926;2023-04-24T01:56:47;0.90;;;0.80;;
65238;SDS011;51827;51.186;6.926;2023-04-24T01:57:48;1.30;;;0.90;;
65238;SDS011;51827;51.186;6.926;2023-04-24T01:58:52;2.35;;;1.10;;
65238;SDS011;51827;51.186;6.926;2023-04-24T01:59:53;1.73;;;1.00;;
65238;SDS011;51827;51.186;6.926;2023-04-24T02:00:55;1.77;;;1.10;;
65238;SDS011;51827;51.186;6.926;2023-04-24T02:01:56;1.75;;;0.90;;
65238;SDS011;51827;51.186;6.926;2023-04-24T02:02:57;2.23;;;1.00;;
65238;SDS011;51827;51.186;6.926;2023-04-24T02:03:57;1.57;;;0.90;;
65238;SDS011;51827;51.186;6.926;2023-04-24T02:04:57;1.30;;;1.03;;
65238;SDS011;51827;51.186;6.926;2023-04-24T02:05:57;1.77;;;1.00;;
65238;SDS011;51827;51.186;6.926;2023-04-24T02:06:58;2.30;;;1.10;;
65238;SDS011;51827;51.186;6.926;2023-04-24T02:07:58;2.30;;;0.90;;
65238;SDS011;51827;51.186;6.926;2023-04-24T02:08:58;1.43;;;0.90;;
65238;SDS011;51827;51.186;6.926;2023-04-24T02:09:59;2.20;;;1.23;;
65238;SDS011;51827;51.186;6.926;2023-04-24T02:10:59;1.50;;;1.10;;
65238;SDS011;51827;51.186;6.926;2023-04-24T02:12:00;1.00;;;0.90;;
65238;SDS011;51827;51.186;6.926;2023-04-24T02:13:00;1.20;;;0.87;;
65238;SDS011;51827;51.186;6.926;2023-04-24T02:14:00;1.00;;;0.90;;
65238;SDS011;51827;51.186;6.926;2023-04-24T02:15:00;1.43;;;1.00;;
65238;SDS011;51827;51.186;6.926;2023-04-24T02:16:01;2.07;;;1.20;;
65238;SDS011;51827;51.186;6.926;2023-04-24T02:17:01;1.67;;;1.00;;
65238;SDS011;51827;51.186;6.926;2023-04-24T02:18:01;1.73;;;1.00;;
65238;SDS011;51827;51.186;6.926;2023-04-24T02:19:02;2.25;;;0.95;;
65238;SDS011;51827;51.186;6.926;2023-04-24T02:20:03;1.02;;;0.90;;
65238;SDS011;51827;51.186;6.926;2023-04-24T02:21:04;1.38;;;0.95;;
65238;SDS011;51827;51.186;6.926;2023-04-24T02:22:04;1.37;;;0.93;;
65238;SDS011;51827;51.186;6.926;2023-04-24T02:23:05;1.40;;;0.90;;
65238;SDS011;51827;51.186;6.926;2023-04-24T02:24:05;1.97;;;1.10;;
65238;SDS011;51827;51.186;6.926;2023-04-24T02:25:05;1.63;;;1.10;;
65238;SDS011;51827;51.186;6.926;2023-04-24T02:26:06;2.30;;;1.00;;
65238;SDS011;51827;51.186;6.926;2023-04-24T02:27:06;1.33;;;0.95;;
65238;SDS011;51827;51.186;6.926;2023-04-24T02:28:07;1.23;;;0.93;;
65238;SDS011;51827;51.186;6.926;2023-04-24T02:29:07;1.17;;;0.90;;
65238;SDS011;51827;51.186;6.926;2023-04-24T02:30:07;1.53;;;0.90;;
65238;SDS011;51827;51.186;6.926;2023-04-24T02:31:08;1.60;;;0.93;;
65238;SDS011;51827;51.186;6.926;2023-04-24T02:32:08;0.87;;;0.80;;
65238;SDS011;51827;51.186;6.926;2023-04-24T02:33:08;1.70;;;0.90;;
65238;SDS011;51827;51.186;6.926;2023-04-24T02:34:09;1.50;;;1.00;;
65238;SDS011;51827;51.186;6.926;2023-04-24T02:35:09;2.07;;;1.17;;
65238;SDS011;51827;51.186;6.926;2023-04-24T02:36:09;1.92;;;0.90;;
65238;SDS011;51827;51.186;6.926;2023-04-24T02:37:10;1.43;;;1.00;;
65238;SDS011;51827;51.186;6.926;2023-04-24T02:38:10;2.13;;;0.97;;
65238;SDS011;51827;51.186;6.926;2023-04-24T02:39:10;1.47;;;1.00;;
65238;SDS011;51827;51.186;6.926;2023-04-24T02:40:10;1.70;;;1.00;;
65238;SDS011;51827;51.186;6.926;2023-04-24T02:41:11;1.48;;;1.13;;
65238;SDS011;51827;51.186;6.926;2023-04-24T02:42:11;1.77;;;0.90;;
65238;SDS011;51827;51.186;6.926;2023-04-24T02:43:11;1.60;;;1.10;;
65238;SDS011;51827;51.186;6.926;2023-04-24T02:44:12;1.47;;;0.90;;
65238;SDS011;51827;51.186;6.926;2023-04-24T02:45:12;1.93;;;1.30;;
65238;SDS011;51827;51.186;6.926;2023-04-24T02:46:12;2.47;;;1.03;;
65238;SDS011;51827;51.186;6.926;2023-04-24T02:47:12;2.13;;;1.10;;
65238;SDS011;51827;51.186;6.926;2023-04-24T02:48:13;1.00;;;0.90;;
65238;SDS011;51827;51.186;6.926;2023-04-24T02:49:13;1.27;;;0.93;;
65238;SDS011;51827;51.186;6.926;2023-04-24T02:50:13;1.67;;;0.90;;
65238;SDS011;51827;51.186;6.926;2023-04-24T02:51:13;0.90;;;0.80;;
65238;SDS011;51827;51.186;6.926;2023-04-24T02:52:13;2.13;;;1.07;;
65238;SDS011;51827;51.186;6.926;2023-04-24T02:53:14;1.47;;;0.90;;
65238;SDS011;51827;51.186;6.926;2023-04-24T02:54:14;1.70;;;1.17;;
65238;SDS011;51827;51.186;6.926;2023-04-24T02:55:14;1.57;;;1.00;;
65238;SDS011;51827;51.186;6.926;2023-04-24T02:56:15;1.50;;;1.00;;
65238;SDS011;51827;51.186;6.926;2023-04-24T02:57:15;1.83;;;1.10;;
65238;SDS011;51827;51.186;6.926;2023-04-24T02:58:15;1.00;;;0.80;;
65238;SDS011;51827;51.186;6.926;2023-04-24T02:59:15;0.97;;;0.80;;
65238;SDS011;51827;51.186;6.926;2023-04-24T03:00:16;1.60;;;1.20;;
65238;SDS011;51827;51.186;6.926;2023-04-24T03:01:16;1.10;;;0.90;;
65238;SDS011;51827;51.186;6.926;2023-04-24T03:02:16;1.30;;;0.90;;
65238;SDS011;51827;51.186;6.926;2023-04-24T03:03:17;1.40;;;1.10;;
65238;SDS011;51827;51.186;6.926;2023-04-24T03:04:17;1.13;;;0.93;;
65238;SDS011;51827;51.186;6.926;2023-04-24T03:05:17;1.20;;;1.00;;
65238;SDS011;51827;51.186;6.926;2023-04-24T03:06:17;1.03;;;0.80;;
65238;SDS011;51827;51.186;6.926;2023-04-24T03:07:18;1.07;;;0.90;;
65238;SDS011;51827;51.186;6.926;2023-04-24T03:08:18;1.03;;;0.93;;
65238;SDS011;51827;51.186;6.926;2023-04-24T03:09:18;1.57;;;1.00;;
65238;SDS011;51827;51.186;6.926;2023-04-24T03:10:18;2.28;;;1.00;;
65238;SDS011;51827;51.186;6.926;2023-04-24T03:11:19;1.60;;;1.00;;
65238;SDS011;51827;51.186;6.926;2023-04-24T03:12:19;1.53;;;1.00;;
65238;SDS011;51827;51.186;6.926;2023-04-24T03:13:19;2.10;;;1.03;;
65238;SDS011;51827;51.186;6.926;2023-04-24T03:14:19;1.23;;;0.87;;
65238;SDS011;51827;51.186;6.926;2023-04-24T03:15:20;1.67;;;0.90;;
65238;SDS011;51827;51.186;6.926;2023-04-24T03:16:20;1.10;;;0.88;;
65238;SDS011;51827;51.186;6.926;2023-04-24T03:17:20;1.83;;;1.00;;
65238;SDS011;51827;51.186;6.926;2023-04-24T03:18:21;2.03;;;1.20;;
65238;SDS011;51827;51.186;6.926;2023-04-24T03:19:21;1.67;;;0.90;;
65238;SDS011;51827;51.186;6.926;2023-04-24T03:20:21;1.33;;;0.97;;
65238;SDS011;51827;51.186;6.926;2023-04-24T03:21:22;0.97;;;0.80;;
65238;SDS011;51827;51.186;6.926;2023-04-24T03:22:22;1.20;;;1.00;;
65238;SDS011;51827;51.186;6.926;2023-04-24T03:23:22;1.23;;;1.10;;
65238;SDS011;51827;51.186;6.926;2023-04-24T03:24:23;1.73;;;1.20;;
65238;SDS011;51827;51.186;6.926;2023-04-24T03:25:23;1.77;;;1.00;;
65238;SDS011;51827;51.186;6.926;2023-04-24T03:26:23;1.53;;;0.97;;
65238;SDS011;51827;51.186;6.926;2023-04-24T03:27:23;1.37;;;1.00;;
65238;SDS011;51827;51.186;6.926;2023-04-24T03:28:24;1.27;;;1.00;;
65238;SDS011;51827;51.186;6.926;2023-04-24T03:29:24;1.40;;;1.00;;
65238;SDS011;51827;51.186;6.926;2023-04-24T03:30:24;1.53;;;1.03;;
65238;SDS011;51827;51.186;6.926;2023-04-24T03:31:24;1.70;;;1.00;;
65238;SDS011;51827;51.186;6.926;2023-04-24T03:32:25;1.50;;;1.00;;
65238;SDS011;51827;51.186;6.926;2023-04-24T03:33:25;1.90;;;1.10;;
65238;SDS011;51827;51.186;6.926;2023-04-24T03:34:25;1.27;;;1.00;;
65238;SDS011;51827;51.186;6.926;2023-04-24T03:35:25;1.53;;;1.03;;
65238;SDS011;51827;51.186;6.926;2023-04-24T03:36:26;1.73;;;1.00;;
65238;SDS011;51827;51.186;6.926;2023-04-24T03:37:26;1.13;;;1.00;;
65238;SDS011;51827;51.186;6.926;2023-04-24T03:38:26;2.03;;;1.00;;
65238;SDS011;51827;51.186;6.926;2023-04-24T03:39:26;1.93;;;1.00;;
65238;SDS011;51827;51.186;6.926;2023-04-24T03:40:27;2.57;;;1.10;;
65238;SDS011;51827;51.186;6.926;2023-04-24T03:41:27;1.03;;;0.90;;
65238;SDS011;51827;51.186;6.926;2023-04-24T03:42:27;2.00;;;1.10;;
65238;SDS011;51827;51.186;6.926;2023-04-24T03:43:27;2.10;;;1.13;;
65238;SDS011;51827;51.186;6.926;2023-04-24T03:44:28;2.23;;;1.10;;
65238;SDS011;51827;51.186;6.926;2023-04-24T03:45:28;2.00;;;1.00;;
65238;SDS011;51827;51.186;6.926;2023-04-24T03:46:28;3.00;;;1.10;;
65238;SDS011;51827;51.186;6.926;2023-04-24T03:47:28;1.30;;;1.10;;
65238;SDS011;51827;51.186;6.926;2023-04-24T03:48:29;1.93;;;1.10;;
65238;SDS011;51827;51.186;6.926;2023-04-24T03:49:29;1.97;;;1.00;;
65238;SDS011;51827;51.186;6.926;2023-04-24T03:50:29;3.17;;;1.10;;
65238;SDS011;51827;51.186;6.926;2023-04-24T03:51:29;2.73;;;1.03;;
65238;SDS011;51827;51.186;6.926;2023-04-24T03:52:30;2.33;;;1.07;;
65238;SDS011;51827;51.186;6.926;2023-04-24T03:53:30;2.20;;;1.10;;
65238;SDS011;51827;51.186;6.926;2023-04-24T03:54:30;1.50;;;1.10;;
65238;SDS011;51827;51.186;6.926;2023-04-24T03:55:30;2.93;;;0.90;;
65238;SDS011;51827;51.186;6.926;2023-04-24T03:56:31;1.37;;;1.10;;
65238;SDS011;51827;51.186;6.926;2023-04-24T03:57:31;1.70;;;1.10;;
65238;SDS011;51827;51.186;6.926;2023-04-24T03:58:31;1.77;;;1.00;;
65238;SDS011;51827;51.186;6.926;2023-04-24T03:59:31;1.80;;;1.10;;
65238;SDS011;51827;51.186;6.926;2023-04-24T04:00:32;1.57;;;1.03;;
65238;SDS011;51827;51.186;6.926;2023-04-24T04:01:32;2.30;;;1.20;;
65238;SDS011;51827;51.186;6.926;2023-04-24T04:02:32;1.40;;;1.07;;
65238;SDS011;51827;51.186;6.926;2023-04-24T04:03:32;1.40;;;0.93;;
65238;SDS011;51827;51.186;6.926;2023-04-24T04:04:33;1.67;;;1.00;;
65238;SDS011;51827;51.186;6.926;2023-04-24T04:05:33;2.17;;;1.00;;
65238;SDS011;51827;51.186;6.926;2023-04-24T04:06:33;1.03;;;0.90;;
65238;SDS011;51827;51.186;6.926;2023-04-24T04:07:34;1.98;;;1.00;;
65238;SDS011;51827;51.186;6.926;2023-04-24T04:08:34;3.03;;;1.00;;
65238;SDS011;51827;51.186;6.926;2023-04-24T04:09:34;2.13;;;1.23;;
65238;SDS011;51827;51.186;6.926;2023-04-24T04:10:34;1.80;;;1.00;;
65238;SDS011;51827;51.186;6.926;2023-04-24T04:11:35;3.00;;;1.30;;
65238;SDS011;51827;51.186;6.926;2023-04-24T04:12:35;7.93;;;1.15;;
65238;SDS011;51827;51.186;6.926;2023-04-24T04:13:35;4.00;;;1.30;;
65238;SDS011;51827;51.186;6.926;2023-04-24T04:14:36;2.47;;;1.10;;
65238;SDS011;51827;51.186;6.926;2023-04-24T04:15:36;2.73;;;1.17;;
65238;SDS011;51827;51.186;6.926;2023-04-24T04:16:36;1.50;;;0.90;;
65238;SDS011;51827;51.186;6.926;2023-04-24T04:17:36;4.07;;;1.30;;
65238;SDS011;51827;51.186;6.926;2023-04-24T04:18:36;2.97;;;1.20;;
65238;SDS011;51827;51.186;6.926;2023-04-24T04:19:37;3.70;;;1.10;;
65238;SDS011;51827;51.186;6.926;2023-04-24T04:20:37;3.43;;;1.20;;
65238;SDS011;51827;51.186;6.926;2023-04-24T04:21:37;4.23;;;1.10;;
65238;SDS011;51827;51.186;6.926;2023-04-24T04:22:37;2.10;;;1.13;;
65238;SDS011;51827;51.186;6.926;2023-04-24T04:23:38;3.40;;;1.33;;
65238;SDS011;51827;51.186;6.926;2023-04-24T04:24:38;2.00;;;1.10;;
65238;SDS011;51827;51.186;6.926;2023-04-24T04:25:38;2.50;;;1.10;;
65238;SDS011;51827;51.186;6.926;2023-04-24T04:26:38;6.23;;;1.20;;
65238;SDS011;51827;51.186;6.926;2023-04-24T04:27:39;3.40;;;1.40;;
65238;SDS011;51827;51.186;6.926;2023-04-24T04:28:39;3.90;;;1.33;;
65238;SDS011;51827;51.186;6.926;2023-04-24T04:29:39;3.63;;;1.17;;
65238;SDS011;51827;51.186;6.926;2023-04-24T04:30:39;2.93;;;1.13;;
65238;SDS011;51827;51.186;6.926;2023-04-24T04:31:40;2.53;;;1.20;;
65238;SDS011;51827;51.186;6.926;2023-04-24T04:32:40;2.97;;;1.20;;
65238;SDS011;51827;51.186;6.926;2023-04-24T04:33:40;5.00;;;1.40;;
65238;SDS011;51827;51.186;6.926;2023-04-24T04:34:40;6.13;;;1.37;;
65238;SDS011;51827;51.186;6.926;2023-04-24T04:35:41;2.63;;;1.30;;
65238;SDS011;51827;51.186;6.926;2023-04-24T04:36:41;2.13;;;1.20;;
65238;SDS011;51827;51.186;6.926;2023-04-24T04:37:42;2.58;;;1.30;;
65238;SDS011;51827;51.186;6.926;2023-04-24T04:38:42;3.73;;;1.37;;
65238;SDS011;51827;51.186;6.926;2023-04-24T04:39:42;3.22;;;1.20;;
65238;SDS011;51827;51.186;6.926;2023-04-24T04:40:43;1.73;;;1.13;;
65238;SDS011;51827;51.186;6.926;2023-04-24T04:41:43;1.75;;;1.17;;
65238;SDS011;51827;51.186;6.926;2023-04-24T04:42:44;11.10;;;1.60;;
65238;SDS011;51827;51.186;6.926;2023-04-24T04:43:44;3.37;;;1.23;;
65238;SDS011;51827;51.186;6.926;2023-04-24T04:44:44;4.40;;;1.43;;
65238;SDS011;51827;51.186;6.926;2023-04-24T04:45:45;4.47;;;1.40;;
65238;SDS011;51827;51.186;6.926;2023-04-24T04:46:45;3.37;;;1.57;;
65238;SDS011;51827;51.186;6.926;2023-04-24T04:47:45;3.87;;;1.70;;
65238;SDS011;51827;51.186;6.926;2023-04-24T04:48:46;4.45;;;1.63;;
65238;SDS011;51827;51.186;6.926;2023-04-24T04:49:46;5.00;;;1.83;;
65238;SDS011;51827;51.186;6.926;2023-04-24T04:50:47;6.00;;;2.40;;
65238;SDS011;51827;51.186;6.926;2023-04-24T04:51:47;6.03;;;1.83;;
65238;SDS011;51827;51.186;6.926;2023-04-24T04:52:47;14.03;;;2.30;;
65238;SDS011;51827;51.186;6.926;2023-04-24T04:53:47;7.00;;;1.90;;
65238;SDS011;51827;51.186;6.926;2023-04-24T04:54:48;4.27;;;1.60;;
65238;SDS011;51827;51.186;6.926;2023-04-24T04:55:48;6.73;;;1.80;;
65238;SDS011;51827;51.186;6.926;2023-04-24T04:56:51;8.60;;;1.87;;
65238;SDS011;51827;51.186;6.926;2023-04-24T04:57:52;6.20;;;1.80;;
65238;SDS011;51827;51.186;6.926;2023-04-24T04:58:52;6.03;;;2.10;;
65238;SDS011;51827;51.186;6.926;2023-04-24T04:59:52;5.30;;;1.70;;
65238;SDS011;51827;51.186;6.926;2023-04-24T05:00:52;4.23;;;1.70;;
65238;SDS011;51827;51.186;6.926;2023-04-24T05:01:53;12.27;;;2.17;;
65238;SDS011;51827;51.186;6.926;2023-04-24T05:02:53;7.33;;;2.27;;
65238;SDS011;51827;51.186;6.926;2023-04-24T05:03:53;9.40;;;2.30;;
65238;SDS011;51827;51.186;6.926;2023-04-24T05:04:54;4.90;;;1.70;;
65238;SDS011;51827;51.186;6.926;2023-04-24T05:05:54;6.43;;;1.70;;
65238;SDS011;51827;51.186;6.926;2023-04-24T05:06:54;3.80;;;1.60;;
65238;SDS011;51827;51.186;6.926;2023-04-24T05:07:55;8.63;;;1.73;;
65238;SDS011;51827;51.186;6.926;2023-04-24T05:08:55;7.13;;;1.63;;
65238;SDS011;51827;51.186;6.926;2023-04-24T05:09:55;5.30;;;1.70;;
65238;SDS011;51827;51.186;6.926;2023-04-24T05:10:55;3.30;;;1.70;;
65238;SDS011;51827;51.186;6.926;2023-04-24T05:11:55;8.23;;;1.70;;
65238;SDS011;51827;51.186;6.926;2023-04-24T05:12:56;7.20;;;1.90;;
65238;SDS011;51827;51.186;6.926;2023-04-24T05:13:56;4.07;;;1.60;;
65238;SDS011;51827;51.186;6.926;2023-04-24T05:14:56;4.40;;;1.50;;
65238;SDS011;51827;51.186;6.926;2023-04-24T05:15:57;5.27;;;1.70;;
65238;SDS011;51827;51.186;6.926;2023-04-24T05:16:57;4.28;;;1.67;;
65238;SDS011;51827;51.186;6.926;2023-04-24T05:17:58;2.83;;;1.50;;
65238;SDS011;51827;51.186;6.926;2023-04-24T05:18:58;5.45;;;1.67;;
65238;SDS011;51827;51.186;6.926;2023-04-24T05:19:58;6.40;;;1.53;;
65238;SDS011;51827;51.186;6.926;2023-04-24T05:20:59;5.47;;;1.63;;
65238;SDS011;51827;51.186;6.926;2023-04-24T05:21:59;3.00;;;1.40;;
65238;SDS011;51827;51.186;6.926;2023-04-24T05:22:59;3.77;;;1.70;;
65238;SDS011;51827;51.186;6.926;2023-04-24T05:23:59;2.97;;;1.70;;
65238;SDS011;51827;51.186;6.926;2023-04-24T05:25:00;4.53;;;1.67;;
65238;SDS011;51827;51.186;6.926;2023-04-24T05:26:00;4.00;;;1.60;;
65238;SDS011;51827;51.186;6.926;2023-04-24T05:27:00;6.33;;;1.90;;
65238;SDS011;51827;51.186;6.926;2023-04-24T05:28:01;5.22;;;1.50;;
65238;SDS011;51827;51.186;6.926;2023-04-24T05:29:02;4.95;;;1.60;;
65238;SDS011;51827;51.186;6.926;2023-04-24T05:30:02;9.90;;;1.60;;
65238;SDS011;51827;51.186;6.926;2023-04-24T05:31:03;4.03;;;1.50;;
65238;SDS011;51827;51.186;6.926;2023-04-24T05:32:03;2.95;;;1.58;;
65238;SDS011;51827;51.186;6.926;2023-04-24T05:33:03;3.90;;;1.60;;
65238;SDS011;51827;51.186;6.926;2023-04-24T05:34:04;5.00;;;1.60;;
65238;SDS011;51827;51.186;6.926;2023-04-24T05:35:04;2.67;;;1.53;;
65238;SDS011;51827;51.186;6.926;2023-04-24T05:36:05;6.25;;;1.88;;
65238;SDS011;51827;51.186;6.926;2023-04-24T05:37:06;3.03;;;1.45;;
65238;SDS011;51827;51.186;6.926;2023-04-24T05:38:06;5.07;;;1.70;;
65238;SDS011;51827;51.186;6.926;2023-04-24T05:39:06;5.33;;;1.60;;
65238;SDS011;51827;51.186;6.926;2023-04-24T05:40:07;3.30;;;1.40;;
65238;SDS011;51827;51.186;6.926;2023-04-24T05:41:08;4.28;;;1.63;;
65238;SDS011;51827;51.186;6.926;2023-04-24T05:42:08;3.50;;;1.50;;
65238;SDS011;51827;51.186;6.926;2023-04-24T05:43:08;5.97;;;1.63;;
65238;SDS011;51827;51.186;6.926;2023-04-24T05:44:08;3.13;;;1.57;;
65238;SDS011;51827;51.186;6.926;2023-04-24T05:45:09;3.75;;;1.60;;
65238;SDS011;51827;51.186;6.926;2023-04-24T05:46:09;5.03;;;1.60;;
65238;SDS011;51827;51.186;6.926;2023-04-24T05:47:11;3.80;;;1.25;;
65238;SDS011;51827;51.186;6.926;2023-04-24T05:48:11;4.73;;;1.60;;
65238;SDS011;51827;51.186;6.926;2023-04-24T05:49:12;4.67;;;1.30;;
65238;SDS011;51827;51.186;6.926;2023-04-24T05:50:12;4.07;;;1.57;;
65238;SDS011;51827;51.186;6.926;2023-04-24T05:51:13;8.27;;;1.50;;
65238;SDS011;51827;51.186;6.926;2023-04-24T05:52:14;5.07;;;1.80;;
65238;SDS011;51827;51.186;6.926;2023-04-24T05:53:14;6.93;;;1.57;;
65238;SDS011;51827;51.186;6.926;2023-04-24T05:54:14;4.03;;;1.37;;
65238;SDS011;51827;51.186;6.926;2023-04-24T05:55:18;2.53;;;1.50;;
65238;SDS011;51827;51.186;6.926;2023-04-24T05:56:18;8.33;;;1.63;;
65238;SDS011;51827;51.186;6.926;2023-04-24T05:57:19;6.53;;;1.40;;
65238;SDS011;51827;51.186;6.926;2023-04-24T05:58:19;3.15;;;1.50;;
65238;SDS011;51827;51.186;6.926;2023-04-24T05:59:19;3.13;;;1.20;;
65238;SDS011;51827;51.186;6.926;2023-04-24T06:00:20;3.43;;;1.20;;
65238;SDS011;51827;51.186;6.926;2023-04-24T06:01:20;5.22;;;1.60;;
65238;SDS011;51827;51.186;6.926;2023-04-24T06:02:20;5.87;;;1.40;;
65238;SDS011;51827;51.186;6.926;2023-04-24T06:03:20;3.80;;;1.50;;
65238;SDS011;51827;51.186;6.926;2023-04-24T06:04:21;4.97;;;1.63;;
65238;SDS011;51827;51.186;6.926;2023-04-24T06:05:21;3.83;;;1.30;;
65238;SDS011;51827;51.186;6.926;2023-04-24T06:06:21;3.05;;;1.30;;